Time;durP1;ratioP1;P1;durP2;ratioP2;P2;SDS_P1;SDS_P2;PMS_P1;PMS_P2;Temp;Humidity;BMP_temperature;BMP_pressure;BME280_temperature;BME280_humidity;BME280_pressure;Samples;Min_cycle;Max_cycle;Signal;HPM_P1;HPM_P2
2022/08/29 00:01:44;;;;;;;1475.03;963.90;;;14.30;99.90;;;;;;4198096;28;20222;-71
2022/08/29 00:03:45;;;;;;;1575.33;995.57;;;14.30;99.90;;;;;;4197481;28;20176;-70
2022/08/29 00:05:46;;;;;;;1744.67;979.70;;;14.30;99.90;;;;;;4197921;28;20250;-71
2022/08/29 00:07:46;;;;;;;1537.40;988.97;;;14.20;99.90;;;;;;4197995;28;20539;-72
2022/08/29 00:09:47;;;;;;;1266.33;933.13;;;14.20;99.90;;;;;;4198074;28;20186;-70
2022/08/29 00:11:48;;;;;;;1319.33;993.97;;;14.20;99.90;;;;;;4198048;28;20207;-71
2022/08/29 00:13:48;;;;;;;1518.97;996.40;;;14.10;99.90;;;;;;4197265;28;20179;-71
2022/08/29 00:15:49;;;;;;;1999.90;988.50;;;14.10;99.90;;;;;;4197290;28;20211;-71
2022/08/29 00:17:50;;;;;;;1889.67;951.67;;;14.10;99.90;;;;;;4197692;28;20713;-71
2022/08/29 00:19:50;;;;;;;1200.30;977.83;;;14.00;99.90;;;;;;4197665;28;20228;-71
2022/08/29 00:21:51;;;;;;;1778.53;999.90;;;14.00;99.90;;;;;;4197710;28;20183;-71
2022/08/29 00:23:51;;;;;;;1437.10;998.33;;;14.00;99.90;;;;;;4197033;28;20241;-71
2022/08/29 00:25:52;;;;;;;1999.90;999.90;;;14.00;99.90;;;;;;4197992;28;20290;-71
2022/08/29 00:27:53;;;;;;;1999.90;999.90;;;14.00;99.90;;;;;;4179766;28;20547;-71
2022/08/29 00:29:53;;;;;;;1972.27;980.03;;;13.90;99.90;;;;;;4197705;28;20195;-71
2022/08/29 00:31:54;;;;;;;1249.13;949.07;;;13.90;99.90;;;;;;4179134;28;20188;-71
2022/08/29 00:33:56;;;;;;;1999.90;999.90;;;13.80;99.90;;;;;;4178970;28;20184;-71
2022/08/29 00:35:57;;;;;;;1448.57;938.77;;;13.80;99.90;;;;;;4197224;28;20219;-71
2022/08/29 00:37:58;;;;;;;1999.90;983.83;;;13.80;99.90;;;;;;4197419;28;20606;-71
2022/08/29 00:39:58;;;;;;;1935.93;936.40;;;13.80;99.90;;;;;;4197416;28;20191;-72
2022/08/29 00:41:59;;;;;;;1804.27;935.53;;;13.80;99.90;;;;;;4197301;28;20183;-71
2022/08/29 00:43:59;;;;;;;1879.90;979.83;;;13.70;99.90;;;;;;4196611;28;20660;-71
2022/08/29 00:46:00;;;;;;;1010.03;893.40;;;13.70;99.90;;;;;;4197454;28;20202;-71
2022/08/29 00:48:06;;;;;;;1999.90;978.17;;;13.70;99.90;;;;;;4197183;28;20560;-70
2022/08/29 00:50:14;;;;;;;1113.97;879.63;;;13.70;99.90;;;;;;4197222;28;20171;-70
2022/08/29 00:52:26;;;;;;;1446.83;966.33;;;13.70;99.90;;;;;;4197218;28;20168;-70
2022/08/29 00:54:27;;;;;;;1999.90;999.90;;;13.60;99.90;;;;;;4196580;28;20179;-70
2022/08/29 00:56:28;;;;;;;1388.43;905.77;;;13.60;99.90;;;;;;4197261;28;20710;-70
2022/08/29 00:58:39;;;;;;;1215.37;849.23;;;13.60;99.90;;;;;;4197166;28;20678;-70
2022/08/29 01:00:41;;;;;;;1999.90;952.03;;;13.50;99.90;;;;;;4197162;28;20183;-70
2022/08/29 01:02:42;;;;;;;930.13;812.77;;;13.50;99.90;;;;;;4197174;28;20184;-71
2022/08/29 01:04:42;;;;;;;1540.43;904.10;;;13.50;99.90;;;;;;4196244;28;20211;-71
2022/08/29 01:06:44;;;;;;;926.10;831.87;;;13.50;99.90;;;;;;4196999;28;20241;-71
2022/08/29 01:08:45;;;;;;;1030.47;849.07;;;13.50;99.90;;;;;;4196814;28;20278;-71
2022/08/29 01:13:07;;;;;;;1705.57;936.13;;;13.60;99.90;;;;;;4196300;28;20174;-71
2022/08/29 01:15:11;;;;;;;1518.30;892.67;;;13.60;99.90;;;;;;4196434;28;20203;-71
2022/08/29 01:17:19;;;;;;;1564.00;944.30;;;13.60;99.90;;;;;;4196784;28;20221;-70
2022/08/29 01:19:45;;;;;;;1692.70;934.40;;;13.60;99.90;;;;;;4196679;28;20205;-70
2022/08/29 01:22:08;;;;;;;831.80;763.07;;;13.50;99.90;;;;;;4196540;28;20188;-70
2022/08/29 01:24:15;;;;;;;1445.63;925.10;;;13.50;99.90;;;;;;4196190;28;20187;-71
2022/08/29 01:26:15;;;;;;;1099.67;825.33;;;13.40;99.90;;;;;;4178428;28;20216;-71
2022/08/29 01:28:24;;;;;;;1824.80;977.97;;;13.40;99.90;;;;;;4196405;28;20726;-71
2022/08/29 01:30:25;;;;;;;1411.80;894.63;;;13.40;99.90;;;;;;4196579;28;20174;-70
2022/08/29 01:32:26;;;;;;;944.23;820.90;;;13.40;99.90;;;;;;4196214;28;20183;-70
2022/08/29 01:34:28;;;;;;;1999.90;928.97;;;13.40;99.90;;;;;;4195720;28;20233;-70
2022/08/29 01:36:38;;;;;;;1192.53;698.37;;;13.40;99.90;;;;;;4178118;28;20292;-70
2022/08/29 01:38:40;;;;;;;1999.90;999.90;;;13.40;99.90;;;;;;4196567;28;20229;-71
2022/08/29 01:40:40;;;;;;;1009.97;714.97;;;13.30;99.90;;;;;;4178672;28;20183;-70
2022/08/29 01:42:41;;;;;;;1225.77;817.27;;;13.30;99.90;;;;;;4196496;28;20175;-70
2022/08/29 01:44:48;;;;;;;887.90;801.57;;;13.30;99.90;;;;;;4194256;28;20300;-71
2022/08/29 01:46:51;;;;;;;993.97;800.33;;;13.20;99.90;;;;;;4196300;28;20184;-70
2022/08/29 01:48:52;;;;;;;916.63;824.83;;;13.20;99.90;;;;;;4196174;28;20656;-70
2022/08/29 01:50:52;;;;;;;1596.57;864.57;;;13.20;99.90;;;;;;4196276;28;20175;-71
2022/08/29 01:52:53;;;;;;;1534.83;917.90;;;13.20;99.90;;;;;;4195501;28;20184;-70
2022/08/29 01:54:53;;;;;;;906.30;778.47;;;13.20;99.90;;;;;;4196042;28;20214;-70
2022/08/29 01:56:54;;;;;;;1999.90;999.90;;;13.20;99.90;;;;;;4178143;28;20248;-70
2022/08/29 01:58:56;;;;;;;1788.80;932.40;;;13.30;99.90;;;;;;4195958;28;20259;-71
2022/08/29 02:00:57;;;;;;;1237.47;742.57;;;13.30;99.90;;;;;;4178182;28;20188;-70
2022/08/29 02:03:00;;;;;;;1589.27;899.00;;;13.30;99.90;;;;;;4195326;28;20349;-71
2022/08/29 02:05:00;;;;;;;825.37;717.13;;;13.30;99.90;;;;;;4195900;28;20195;-70
2022/08/29 02:07:01;;;;;;;767.77;710.17;;;13.20;99.90;;;;;;4195985;28;20194;-71
2022/08/29 02:09:04;;;;;;;1999.90;999.90;;;13.00;99.90;;;;;;4195932;28;20652;-71
2022/08/29 02:11:10;;;;;;;1111.13;848.37;;;13.00;99.90;;;;;;4178027;28;20192;-70
2022/08/29 02:13:10;;;;;;;1390.43;872.60;;;13.00;99.90;;;;;;4195299;28;20164;-70
2022/08/29 02:15:12;;;;;;;1207.67;842.20;;;13.00;99.90;;;;;;4195757;28;20230;-71
2022/08/29 02:17:13;;;;;;;801.57;720.53;;;13.00;99.90;;;;;;4195798;28;20616;-70
2022/08/29 02:19:14;;;;;;;734.43;679.20;;;13.00;99.90;;;;;;4177552;28;20219;-70
2022/08/29 02:21:18;;;;;;;1368.90;818.00;;;13.00;99.90;;;;;;4195453;28;20912;-71
2022/08/29 02:23:18;;;;;;;870.90;789.27;;;13.00;99.90;;;;;;4195198;28;20180;-71
2022/08/29 02:27:38;;;;;;;810.50;696.70;;;13.00;99.90;;;;;;4195859;28;20218;-71
2022/08/29 02:29:38;;;;;;;1169.43;757.97;;;12.90;99.90;;;;;;4195644;28;20179;-71
2022/08/29 02:31:41;;;;;;;687.57;630.87;;;12.90;99.90;;;;;;4195652;28;20274;-70
2022/08/29 02:33:41;;;;;;;854.93;777.00;;;12.90;99.90;;;;;;4190929;28;20226;-70
2022/08/29 02:35:42;;;;;;;780.20;711.90;;;12.90;99.90;;;;;;4176960;28;20216;-70
2022/08/29 02:37:43;;;;;;;703.00;648.83;;;12.90;99.90;;;;;;4195567;28;20725;-71
2022/08/29 02:39:44;;;;;;;860.20;695.80;;;12.80;99.90;;;;;;4195748;28;20172;-70
2022/08/29 02:41:44;;;;;;;1318.57;794.77;;;12.80;99.90;;;;;;4177681;28;20184;-70
2022/08/29 02:43:45;;;;;;;600.53;548.70;;;12.70;99.90;;;;;;4194752;28;20190;-70
2022/08/29 02:45:46;;;;;;;691.43;644.43;;;12.80;99.90;;;;;;4195176;28;20225;-70
2022/08/29 02:47:47;;;;;;;764.83;685.37;;;12.80;99.90;;;;;;4195662;28;20186;-70
2022/08/29 02:49:47;;;;;;;652.80;608.20;;;12.80;99.90;;;;;;4177718;28;20220;-70
2022/08/29 02:51:48;;;;;;;1468.43;851.30;;;12.80;99.90;;;;;;4176087;28;20307;-70
2022/08/29 02:53:49;;;;;;;791.87;710.83;;;12.80;99.90;;;;;;4194748;28;20198;-70
2022/08/29 02:55:53;;;;;;;848.00;745.17;;;12.80;99.90;;;;;;4195330;28;20223;-70
2022/08/29 02:57:54;;;;;;;1973.67;903.60;;;12.70;99.90;;;;;;4195424;28;20183;-70
2022/08/29 02:59:54;;;;;;;548.73;509.80;;;12.70;99.90;;;;;;4177652;28;20184;-70
2022/08/29 03:01:55;;;;;;;1422.50;912.60;;;12.70;99.90;;;;;;4195306;28;20172;-70
2022/08/29 03:03:56;;;;;;;778.27;710.77;;;12.70;99.90;;;;;;4195076;28;20175;-70
2022/08/29 03:05:57;;;;;;;461.37;431.73;;;12.70;99.90;;;;;;4177610;28;20577;-70
2022/08/29 03:07:58;;;;;;;627.57;578.83;;;12.70;99.90;;;;;;4195438;28;20175;-70
2022/08/29 03:09:58;;;;;;;1999.90;907.90;;;12.70;99.90;;;;;;4195312;28;20176;-70
2022/08/29 03:11:59;;;;;;;630.07;586.27;;;12.70;99.90;;;;;;4195454;28;20279;-71
2022/08/29 03:14:00;;;;;;;815.63;727.53;;;12.80;99.90;;;;;;4194725;28;20175;-71
2022/08/29 03:16:01;;;;;;;1462.90;885.53;;;12.70;99.90;;;;;;4195165;28;20774;-72
2022/08/29 03:18:02;;;;;;;942.83;846.93;;;12.60;99.90;;;;;;4195334;28;20191;-72
2022/08/29 03:20:04;;;;;;;1999.90;999.90;;;12.60;99.90;;;;;;4177371;28;20264;-71
2022/08/29 03:22:05;;;;;;;1022.20;777.97;;;12.60;99.90;;;;;;4177376;28;20194;-70
2022/08/29 03:24:05;;;;;;;1306.80;842.60;;;12.50;99.90;;;;;;4176783;28;20184;-70
2022/08/29 03:26:06;;;;;;;906.20;824.53;;;12.50;99.90;;;;;;4195222;28;20294;-70
2022/08/29 03:28:07;;;;;;;1999.90;965.83;;;12.50;99.90;;;;;;4195371;28;20237;-69
2022/08/29 03:30:10;;;;;;;933.07;833.27;;;12.50;99.90;;;;;;4177357;28;20238;-70
2022/08/29 03:32:11;;;;;;;869.73;781.30;;;12.50;99.90;;;;;;4195280;28;20176;-70
2022/08/29 03:34:13;;;;;;;865.73;773.43;;;12.50;99.90;;;;;;4194813;28;20264;-70
2022/08/29 03:36:14;;;;;;;818.23;751.77;;;12.40;99.90;;;;;;4195157;28;20204;-70
2022/08/29 03:38:14;;;;;;;927.33;776.93;;;12.30;99.90;;;;;;4195262;28;20195;-69
2022/08/29 03:40:16;;;;;;;1140.23;695.27;;;12.30;99.90;;;;;;4177159;28;20216;-69
2022/08/29 03:42:17;;;;;;;1179.57;914.73;;;12.30;99.90;;;;;;4195404;28;20180;-71
2022/08/29 03:44:18;;;;;;;1999.90;997.97;;;12.30;99.90;;;;;;4194631;28;20337;-69
2022/08/29 03:46:18;;;;;;;1999.90;997.97;;;12.30;99.90;;;;;;4195351;28;20213;-70
2022/08/29 03:48:19;;;;;;;1672.80;782.93;;;12.30;99.90;;;;;;4194859;28;20184;-70
2022/08/29 03:50:20;;;;;;;873.67;796.37;;;12.30;99.90;;;;;;4195151;28;20184;-70
2022/08/29 03:52:21;;;;;;;919.80;837.80;;;12.30;99.90;;;;;;4195093;28;20271;-70
2022/08/29 03:54:21;;;;;;;723.83;671.33;;;12.30;99.90;;;;;;4194444;28;20196;-69
2022/08/29 03:56:22;;;;;;;1070.93;732.77;;;12.20;99.90;;;;;;4194952;28;20211;-69
2022/08/29 03:58:23;;;;;;;1449.63;867.63;;;12.20;99.90;;;;;;4195103;28;20218;-70
2022/08/29 04:00:24;;;;;;;1953.20;999.90;;;12.10;99.90;;;;;;4196054;28;20184;-70
2022/08/29 04:02:25;;;;;;;858.07;767.23;;;12.10;99.90;;;;;;4197082;28;20218;-70
2022/08/29 04:06:45;;;;;;;1535.00;924.70;;;12.20;99.90;;;;;;4197936;28;20176;-70
2022/08/29 04:08:46;;;;;;;805.13;730.63;;;12.10;99.90;;;;;;4200348;28;20172;-70
2022/08/29 04:10:47;;;;;;;1773.37;778.47;;;12.10;99.90;;;;;;4199906;28;20184;-70
2022/08/29 04:12:48;;;;;;;773.57;715.97;;;12.20;99.90;;;;;;4199226;28;20696;-70
2022/08/29 04:14:49;;;;;;;673.17;620.83;;;12.20;99.90;;;;;;4199269;28;20203;-70
2022/08/29 04:16:49;;;;;;;945.47;815.67;;;12.20;99.90;;;;;;4199778;28;20291;-70
2022/08/29 04:18:50;;;;;;;866.83;750.23;;;12.20;99.90;;;;;;4199643;28;20179;-70
2022/08/29 04:21:01;;;;;;;1275.73;808.90;;;12.10;99.90;;;;;;4199682;28;20180;-69
2022/08/29 04:23:02;;;;;;;728.33;670.27;;;12.20;99.90;;;;;;4197678;28;20168;-70
2022/08/29 04:25:05;;;;;;;1654.40;910.07;;;12.10;99.90;;;;;;4197928;28;20292;-70
2022/08/29 04:27:06;;;;;;;624.17;564.77;;;12.10;99.90;;;;;;4180109;28;20263;-70
2022/08/29 04:29:09;;;;;;;1260.13;781.80;;;12.10;99.90;;;;;;4197726;28;20179;-70
2022/08/29 04:31:18;;;;;;;1134.77;724.30;;;12.10;99.90;;;;;;4197848;28;20258;-70
2022/08/29 04:33:21;;;;;;;1970.53;983.67;;;12.10;99.90;;;;;;4179351;28;20275;-70
2022/08/29 04:35:21;;;;;;;1135.23;742.47;;;12.10;99.90;;;;;;4197783;28;20679;-70
2022/08/29 04:37:22;;;;;;;1392.23;673.97;;;12.10;99.90;;;;;;4197843;28;20186;-70
2022/08/29 04:39:23;;;;;;;718.30;662.73;;;12.20;99.90;;;;;;4179551;28;20192;-70
2022/08/29 04:41:24;;;;;;;756.23;701.40;;;12.10;99.90;;;;;;4197599;28;20709;-70
2022/08/29 04:43:24;;;;;;;1653.60;894.97;;;12.00;99.90;;;;;;4197014;28;20255;-70
2022/08/29 04:45:25;;;;;;;1219.47;711.47;;;12.00;99.90;;;;;;4184617;28;20216;-70
2022/08/29 04:47:26;;;;;;;876.10;780.47;;;12.00;99.90;;;;;;4194162;28;20268;-70
2022/08/29 04:49:27;;;;;;;1402.93;878.70;;;12.00;99.90;;;;;;4189166;28;20184;-70
2022/08/29 04:51:28;;;;;;;613.73;565.07;;;12.10;99.90;;;;;;4197631;28;20709;-70
2022/08/29 04:53:29;;;;;;;855.13;766.70;;;12.10;99.90;;;;;;4196973;28;20267;-70
2022/08/29 04:55:30;;;;;;;756.77;701.27;;;12.10;99.90;;;;;;4197456;28;20207;-70
2022/08/29 04:57:32;;;;;;;662.20;617.17;;;12.10;99.90;;;;;;4163368;28;20804;-70
2022/08/29 04:59:33;;;;;;;722.50;659.53;;;12.10;99.90;;;;;;4197609;28;20211;-70
2022/08/29 05:01:34;;;;;;;761.40;704.10;;;12.00;99.90;;;;;;4179729;28;20185;-70
2022/08/29 05:03:34;;;;;;;700.00;641.40;;;12.10;99.90;;;;;;4178961;28;20192;-70
2022/08/29 05:05:35;;;;;;;668.53;623.10;;;12.10;99.90;;;;;;4197169;28;20647;-72
2022/08/29 05:07:36;;;;;;;967.40;612.83;;;12.10;99.90;;;;;;4179578;28;20188;-70
2022/08/29 05:09:37;;;;;;;1459.93;879.33;;;12.10;99.90;;;;;;4196125;28;20183;-69
2022/08/29 05:11:39;;;;;;;936.97;768.70;;;12.10;99.90;;;;;;4197011;28;20595;-69
2022/08/29 05:13:39;;;;;;;865.33;796.70;;;12.20;99.90;;;;;;4196234;28;20568;-70
2022/08/29 05:15:40;;;;;;;742.93;683.47;;;12.20;99.90;;;;;;4196592;28;20208;-70
2022/08/29 05:17:41;;;;;;;755.27;683.33;;;12.20;99.90;;;;;;4178649;28;20180;-70
2022/08/29 05:19:42;;;;;;;766.50;701.20;;;12.20;99.90;;;;;;4196907;28;20179;-70
2022/08/29 05:21:43;;;;;;;932.33;775.87;;;12.20;99.90;;;;;;4196792;28;20556;-70
2022/08/29 05:23:44;;;;;;;1999.90;999.90;;;12.20;99.90;;;;;;4178470;28;20272;-70
2022/08/29 05:25:44;;;;;;;1648.17;946.47;;;12.30;99.90;;;;;;4196888;28;20256;-70
2022/08/29 05:27:45;;;;;;;816.70;748.10;;;12.40;99.90;;;;;;4196686;28;20226;-70
2022/08/29 05:29:48;;;;;;;690.20;636.10;;;12.40;99.90;;;;;;4178922;28;20196;-71
2022/08/29 05:31:49;;;;;;;808.73;740.40;;;12.40;99.90;;;;;;4196658;28;20183;-71
2022/08/29 05:33:50;;;;;;;971.03;869.07;;;12.40;99.90;;;;;;4196086;28;20560;-71
2022/08/29 05:35:50;;;;;;;828.17;750.30;;;12.50;99.90;;;;;;4196477;28;20203;-71
2022/08/29 05:37:51;;;;;;;842.50;770.33;;;12.50;99.90;;;;;;4196524;28;20179;-71
2022/08/29 05:39:52;;;;;;;827.73;753.83;;;12.50;99.90;;;;;;4196192;28;20241;-71
2022/08/29 05:41:56;;;;;;;858.10;783.73;;;12.50;99.90;;;;;;4196402;28;20180;-72
2022/08/29 05:43:56;;;;;;;845.40;769.30;;;12.50;99.90;;;;;;4196038;28;20191;-71
2022/08/29 05:46:03;;;;;;;880.57;793.60;;;12.50;99.90;;;;;;4178875;28;20310;-71
2022/08/29 05:48:05;;;;;;;862.47;784.47;;;12.60;99.90;;;;;;4196206;28;20199;-72
2022/08/29 05:50:06;;;;;;;911.00;817.57;;;12.60;99.90;;;;;;4196452;28;20244;-71
2022/08/29 05:52:07;;;;;;;1212.47;905.80;;;12.60;99.90;;;;;;4196442;28;20191;-71
2022/08/29 05:54:08;;;;;;;1067.90;904.00;;;12.70;99.90;;;;;;4177673;28;20181;-71
2022/08/29 05:56:09;;;;;;;888.23;800.13;;;12.70;99.90;;;;;;4196074;28;20291;-71
2022/08/29 05:58:10;;;;;;;995.17;844.43;;;12.80;99.90;;;;;;4196180;28;20263;-70
2022/08/29 06:00:11;;;;;;;1654.93;940.67;;;12.80;99.90;;;;;;4196143;28;20251;-70
2022/08/29 06:02:12;;;;;;;1328.83;801.57;;;12.90;99.90;;;;;;4196260;28;20201;-71
2022/08/29 06:04:13;;;;;;;1757.03;925.17;;;12.90;99.90;;;;;;4195491;28;21040;-70
2022/08/29 06:06:13;;;;;;;1423.63;881.20;;;13.00;99.90;;;;;;4196009;28;20195;-70
2022/08/29 06:08:14;;;;;;;1108.53;881.30;;;13.00;99.90;;;;;;4196001;28;20191;-71
2022/08/29 06:10:14;;;;;;;1588.47;955.50;;;13.10;99.90;;;;;;4196020;28;20183;-71
2022/08/29 06:12:15;;;;;;;1470.97;941.63;;;13.10;99.90;;;;;;4196103;28;20188;-70
2022/08/29 06:14:16;;;;;;;1999.90;999.90;;;13.10;99.90;;;;;;4195460;28;20176;-70
2022/08/29 06:16:20;;;;;;;1630.10;852.20;;;13.20;99.90;;;;;;4195777;28;20215;-70
2022/08/29 06:18:21;;;;;;;1999.90;999.90;;;13.20;99.90;;;;;;4177756;28;20271;-71
2022/08/29 06:20:22;;;;;;;1902.43;914.60;;;13.30;99.90;;;;;;4195957;28;20197;-70
2022/08/29 06:22:22;;;;;;;952.67;847.50;;;13.30;99.90;;;;;;4196114;28;20188;-71
2022/08/29 06:24:23;;;;;;;1999.90;999.90;;;13.40;99.90;;;;;;4195163;28;20188;-71
2022/08/29 06:26:23;;;;;;;1953.30;999.90;;;13.40;99.90;;;;;;4178129;28;20176;-71
2022/08/29 06:28:28;;;;;;;1999.90;999.90;;;13.40;99.90;;;;;;4195834;28;20180;-71
2022/08/29 06:30:32;;;;;;;1661.17;970.73;;;13.50;99.90;;;;;;4195337;28;20551;-70
2022/08/29 06:32:33;;;;;;;1999.90;999.90;;;13.60;99.90;;;;;;4195671;28;20277;-70
2022/08/29 06:34:34;;;;;;;1999.90;999.90;;;13.70;99.90;;;;;;4195218;28;20620;-70
2022/08/29 06:36:35;;;;;;;1999.90;999.90;;;13.70;99.90;;;;;;4195446;28;20207;-71
2022/08/29 06:38:36;;;;;;;1999.90;948.87;;;13.80;99.90;;;;;;4195763;28;20221;-71
2022/08/29 06:40:36;;;;;;;1999.90;999.90;;;14.00;99.90;;;;;;4195755;28;20711;-71
2022/08/29 06:42:37;;;;;;;1999.90;999.90;;;14.00;99.90;;;;;;4195676;28;20179;-71
2022/08/29 06:44:37;;;;;;;1999.90;942.67;;;14.10;99.90;;;;;;4194941;28;20251;-71
2022/08/29 06:46:41;;;;;;;1999.90;999.90;;;14.20;99.90;;;;;;4195792;28;20266;-71
2022/08/29 06:48:42;;;;;;;1999.90;999.90;;;14.30;99.90;;;;;;4195535;28;20183;-71
2022/08/29 06:50:42;;;;;;;1999.90;999.90;;;14.40;99.90;;;;;;4195443;28;20206;-70
2022/08/29 06:52:43;;;;;;;1999.90;943.33;;;14.60;99.90;;;;;;4195307;28;20652;-70
2022/08/29 06:54:44;;;;;;;1529.93;931.20;;;14.60;99.90;;;;;;4194733;28;20318;-71
2022/08/29 06:56:45;;;;;;;1999.90;999.90;;;14.80;99.90;;;;;;4177487;28;20212;-71
2022/08/29 06:58:45;;;;;;;1999.90;999.90;;;14.90;99.90;;;;;;4195299;28;20541;-71
2022/08/29 07:00:46;;;;;;;1999.90;999.90;;;15.00;99.90;;;;;;4195399;28;20182;-70
2022/08/29 07:02:47;;;;;;;1999.90;999.90;;;15.00;99.90;;;;;;4194745;28;20180;-70
2022/08/29 07:04:47;;;;;;;1999.90;894.40;;;15.10;99.90;;;;;;4195249;28;20282;-71
2022/08/29 07:06:48;;;;;;;1999.90;999.90;;;15.20;99.90;;;;;;4195444;28;20183;-71
2022/08/29 07:08:49;;;;;;;1999.90;943.90;;;15.30;99.90;;;;;;4195559;28;20226;-71
2022/08/29 07:10:50;;;;;;;1999.90;986.50;;;15.40;99.90;;;;;;4195486;28;20560;-71
2022/08/29 07:12:53;;;;;;;1999.90;999.90;;;15.60;99.90;;;;;;4194781;28;20199;-70
2022/08/29 07:14:54;;;;;;;1999.90;908.87;;;15.60;99.90;;;;;;4195209;28;20699;-71
2022/08/29 07:16:55;;;;;;;1999.90;999.90;;;15.70;99.90;;;;;;4195381;28;20277;-71
2022/08/29 07:18:56;;;;;;;1999.90;875.03;;;15.80;99.90;;;;;;4195298;28;20606;-71
2022/08/29 07:20:56;;;;;;;1999.90;878.13;;;16.00;99.90;;;;;;4195202;28;20176;-71
2022/08/29 07:22:57;;;;;;;1999.90;951.03;;;16.10;99.90;;;;;;4194755;28;20724;-71
2022/08/29 07:24:57;;;;;;;1999.90;813.90;;;16.20;99.90;;;;;;4195203;28;20199;-71
2022/08/29 07:26:58;;;;;;;1999.90;808.77;;;16.30;99.90;;;;;;4195271;28;20350;-71
2022/08/29 07:29:02;;;;;;;1999.90;847.33;;;16.40;99.90;;;;;;4195266;28;20588;-71
2022/08/29 07:31:03;;;;;;;1999.90;918.30;;;16.50;99.90;;;;;;4195282;28;20180;-71
2022/08/29 07:33:04;;;;;;;1999.90;900.97;;;16.60;99.90;;;;;;4176562;28;20238;-70
2022/08/29 07:35:05;;;;;;;1999.90;741.53;;;16.70;99.90;;;;;;4195212;28;20863;-71
2022/08/29 07:37:06;;;;;;;1999.90;685.00;;;16.80;99.90;;;;;;4194942;28;20299;-69
2022/08/29 07:39:10;;;;;;;1999.90;801.90;;;16.90;99.90;;;;;;4194686;28;20215;-69
2022/08/29 07:41:15;;;;;;;1999.90;708.70;;;17.20;99.90;;;;;;4191347;28;20264;-71
2022/08/29 07:43:15;;;;;;;1999.90;987.90;;;17.20;99.90;;;;;;4193298;28;20187;-71
2022/08/29 07:45:17;;;;;;;1999.90;999.03;;;17.30;99.90;;;;;;4185721;28;20277;-69
2022/08/29 07:47:17;;;;;;;1999.90;989.80;;;17.50;99.90;;;;;;4194988;28;21837;-69
2022/08/29 07:49:18;;;;;;;1999.90;712.73;;;17.50;99.90;;;;;;4194167;28;20215;-68
2022/08/29 07:51:21;;;;;;;1999.90;710.80;;;17.70;99.90;;;;;;4194621;28;20187;-69
2022/08/29 07:53:23;;;;;;;1999.90;985.47;;;17.80;99.90;;;;;;4175594;28;20310;-69
2022/08/29 07:55:24;;;;;;;1999.90;591.97;;;18.00;99.90;;;;;;4194327;28;20216;-67
2022/08/29 07:57:24;;;;;;;1999.90;759.33;;;18.20;99.90;;;;;;4194238;28;20216;-69
2022/08/29 07:59:25;;;;;;;1999.90;855.20;;;18.30;99.90;;;;;;4194606;28;20211;-71
2022/08/29 08:01:26;;;;;;;1999.90;720.07;;;18.50;99.20;;;;;;4176343;28;20187;-69
2022/08/29 08:03:27;;;;;;;1999.90;750.43;;;18.70;98.80;;;;;;4193466;28;20264;-69
2022/08/29 08:05:27;;;;;;;1999.90;772.60;;;18.80;97.50;;;;;;4193858;28;20613;-68
2022/08/29 08:07:28;;;;;;;1999.90;839.03;;;18.90;96.20;;;;;;4194088;28;20959;-68
2022/08/29 08:09:29;;;;;;;1999.90;919.17;;;19.10;96.40;;;;;;4175761;28;20196;-69
2022/08/29 08:11:30;;;;;;;1999.90;824.90;;;19.20;95.10;;;;;;4194267;28;20749;-69
2022/08/29 08:13:31;;;;;;;1999.90;789.43;;;19.40;95.50;;;;;;4193252;28;20188;-70
2022/08/29 08:15:32;;;;;;;1999.90;751.70;;;19.50;94.00;;;;;;4192707;28;20699;-71
2022/08/29 08:17:32;;;;;;;1999.90;969.87;;;19.60;93.30;;;;;;4194104;28;20191;-71
2022/08/29 08:19:33;;;;;;;1999.90;813.97;;;19.60;92.70;;;;;;4193998;28;20183;-71
2022/08/29 08:21:34;;;;;;;1999.90;897.00;;;19.90;93.90;;;;;;4193708;28;20195;-71
2022/08/29 08:23:35;;;;;;;1999.90;851.13;;;20.00;92.50;;;;;;4193500;28;20196;-71
2022/08/29 08:25:36;;;;;;;1999.90;774.67;;;20.20;92.00;;;;;;4193431;28;20239;-68
2022/08/29 08:27:36;;;;;;;1999.90;886.90;;;20.10;91.60;;;;;;4193615;28;20260;-70
2022/08/29 08:29:37;;;;;;;1999.90;761.93;;;20.30;94.00;;;;;;4193894;28;20192;-69
2022/08/29 08:31:43;;;;;;;1999.90;770.17;;;20.40;91.70;;;;;;4193826;28;20179;-71
2022/08/29 08:33:44;;;;;;;1999.90;923.27;;;20.30;89.20;;;;;;4175433;28;20192;-70
2022/08/29 08:35:45;;;;;;;1999.90;912.53;;;20.30;87.10;;;;;;4193359;28;20211;-70
2022/08/29 08:37:46;;;;;;;1999.90;817.00;;;20.50;91.60;;;;;;4175740;28;20220;-71
2022/08/29 08:39:47;;;;;;;1999.90;914.70;;;20.80;89.30;;;;;;4193943;28;20652;-70
2022/08/29 08:41:56;;;;;;;1999.90;660.87;;;20.80;80.50;;;;;;4175322;28;20278;-71
2022/08/29 08:44:02;;;;;;;1999.90;896.80;;;21.00;81.30;;;;;;4174764;28;20203;-69
2022/08/29 08:46:03;;;;;;;1999.90;999.90;;;21.30;77.60;;;;;;4193489;28;21004;-70
2022/08/29 08:48:13;;;;;;;1999.90;820.17;;;21.20;82.40;;;;;;4173479;28;20223;-70
2022/08/29 08:50:44;;;;;;;1999.90;633.60;;;21.30;77.50;;;;;;4175213;28;20214;-69
2022/08/29 08:53:06;;;;;;;1999.90;819.37;;;21.60;81.70;;;;;;4173814;28;20196;-69
2022/08/29 08:55:43;;;;;;;1999.90;789.10;;;21.70;73.70;;;;;;4192736;28;20687;-71
2022/08/29 08:57:59;;;;;;;1999.90;733.47;;;21.80;76.10;;;;;;4175157;28;20192;-70
2022/08/29 08:59:59;;;;;;;1999.90;899.10;;;21.80;74.10;;;;;;4176073;28;20251;-70
2022/08/29 09:02:12;;;;;;;1999.90;802.67;;;21.80;75.20;;;;;;4174938;28;20241;-70
2022/08/29 09:04:41;;;;;;;1999.90;777.83;;;22.10;75.50;;;;;;4173897;28;20187;-69
2022/08/29 09:07:18;;;;;;;1999.90;768.80;;;22.30;72.60;;;;;;4193343;28;20179;-69
2022/08/29 09:09:52;;;;;;;1999.90;928.80;;;22.30;70.30;;;;;;4192928;28;20574;-70
2022/08/29 09:12:15;;;;;;;1999.90;878.47;;;22.20;70.40;;;;;;4193281;28;20748;-71
2022/08/29 09:14:27;;;;;;;1999.90;837.93;;;22.40;68.20;;;;;;4192178;28;20607;-71
2022/08/29 09:16:42;;;;;;;1999.90;844.37;;;22.60;70.60;;;;;;4193527;28;20256;-71
2022/08/29 09:18:43;;;;;;;1999.90;997.80;;;23.00;67.50;;;;;;4173766;28;20873;-71
2022/08/29 09:20:44;;;;;;;1999.90;895.07;;;23.10;63.10;;;;;;4174729;28;20267;-71
2022/08/29 09:23:04;;;;;;;1999.90;865.67;;;22.60;65.60;;;;;;4174629;28;20184;-71
2022/08/29 09:25:09;;;;;;;1999.90;856.03;;;22.50;65.20;;;;;;4175008;28;20202;-70
2022/08/29 09:27:23;;;;;;;1999.90;643.17;;;22.30;66.90;;;;;;4158401;28;20295;-69
2022/08/29 09:29:28;;;;;;;1999.90;834.50;;;22.40;70.00;;;;;;4174137;28;20192;-71
2022/08/29 09:31:32;;;;;;;1999.90;975.83;;;22.50;64.40;;;;;;4192793;28;20210;-70
2022/08/29 09:33:51;;;;;;;1999.90;930.47;;;22.70;64.60;;;;;;4192162;28;20192;-71
2022/08/29 09:35:52;;;;;;;1999.90;999.90;;;22.90;62.50;;;;;;4172768;28;20208;-72
2022/08/29 09:38:07;;;;;;;1999.90;907.13;;;23.20;62.20;;;;;;4173494;28;20181;-71
2022/08/29 09:40:17;;;;;;;1999.90;787.37;;;23.40;64.50;;;;;;4194449;28;20176;-71
2022/08/29 09:42:21;;;;;;;1999.90;933.57;;;23.80;60.70;;;;;;4161335;28;20169;-73
2022/08/29 09:44:33;;;;;;;1999.90;999.90;;;24.00;59.40;;;;;;4177068;28;20279;-69
2022/08/29 09:46:33;;;;;;;1999.90;899.83;;;23.70;60.10;;;;;;4177664;28;20596;-72
2022/08/29 09:48:38;;;;;;;1999.90;944.13;;;23.80;62.60;;;;;;4195850;28;20183;-71
2022/08/29 09:50:39;;;;;;;1999.90;992.57;;;24.20;59.10;;;;;;4194947;28;20180;-71
2022/08/29 09:53:00;;;;;;;1999.90;790.57;;;24.40;61.40;;;;;;4177323;28;20660;-70
2022/08/29 09:55:41;;;;;;;1999.90;895.73;;;24.30;58.00;;;;;;4177990;28;20200;-71
2022/08/29 09:57:53;;;;;;;1999.90;856.80;;;24.10;59.30;;;;;;4127417;28;20587;-71
2022/08/29 10:00:15;;;;;;;1999.90;999.90;;;24.70;58.10;;;;;;4161269;28;20199;-70
2022/08/29 10:02:20;;;;;;;1999.90;930.20;;;25.40;55.30;;;;;;4161003;28;20181;-70
2022/08/29 10:04:40;;;;;;;1999.90;699.53;;;24.90;53.40;;;;;;4177631;28;20173;-73
2022/08/29 10:06:41;;;;;;;1999.90;804.47;;;25.10;54.80;;;;;;4161227;28;20266;-73
2022/08/29 10:09:24;;;;;;;1999.90;802.00;;;25.20;51.70;;;;;;4178941;28;20253;-70
2022/08/29 10:11:49;;;;;;;1999.90;816.63;;;25.70;50.90;;;;;;4153374;28;20197;-72